Time;durP1;ratioP1;P1;durP2;ratioP2;P2;SDS_P1;SDS_P2;PMS_P1;PMS_P2;Temp;Humidity;BMP_temperature;BMP_pressure;BME280_temperature;BME280_humidity;BME280_pressure;Samples;Min_cycle;Max_cycle;Signal;HPM_P1;HPM_P2
2022/12/23 00:03:20;;;;;;;6.85;3.10;;;;;;;5.38;99.59;100016.72;10571277;28;20052;-79
2022/12/23 00:08:22;;;;;;;8.32;2.40;;;;;;;5.43;99.69;100010.78;10563853;28;20572;-78
2022/12/23 00:18:44;;;;;;;3.95;2.55;;;;;;;5.42;99.67;100011.63;10551938;28;20063;-79
2022/12/23 00:23:47;;;;;;;4.32;2.75;;;;;;;5.40;99.52;100010.69;10559857;28;20140;-78
2022/12/23 00:28:49;;;;;;;4.85;2.63;;;;;;;5.42;99.66;100027.22;10541541;28;20050;-80
2022/12/23 00:33:53;;;;;;;4.95;3.08;;;;;;;5.41;99.80;100016.78;10567792;28;20052;-79
2022/12/23 00:44:16;;;;;;;4.68;2.72;;;;;;;5.43;99.75;100021.16;10569437;28;20531;-79
2022/12/23 00:54:40;;;;;;;6.85;3.80;;;;;;;5.44;99.96;100028.13;10567735;28;20043;-79
2022/12/23 00:59:41;;;;;;;2.58;1.90;;;;;;;5.41;99.93;100017.66;10561478;28;20106;-79
2022/12/23 01:10:03;;;;;;;5.78;4.07;;;;;;;5.44;99.97;100020.31;10563998;28;20051;-78
2022/12/23 01:15:06;;;;;;;3.88;2.38;;;;;;;5.45;100.00;100024.69;10547930;28;20423;-79
2022/12/23 01:20:07;;;;;;;5.25;2.83;;;;;;;5.46;100.00;100034.25;10560962;28;20510;-79
2022/12/23 01:25:09;;;;;;;4.63;2.40;;;;;;;5.48;100.00;100034.28;10567075;28;20074;-79
2022/12/23 01:30:11;;;;;;;3.65;2.22;;;;;;;5.48;100.00;100032.56;10567729;28;20487;-79
2022/12/23 01:35:13;;;;;;;3.10;1.90;;;;;;;5.49;100.00;100030.81;10567026;28;20058;-79
2022/12/23 01:40:14;;;;;;;4.68;3.30;;;;;;;5.48;100.00;100035.16;10558675;28;20039;-80
2022/12/23 01:45:26;;;;;;;4.13;2.33;;;;;;;5.48;100.00;100050.72;10557869;28;20048;-79
2022/12/23 01:50:34;;;;;;;2.15;1.13;;;;;;;5.50;100.00;100058.56;10550694;28;20139;-80
2022/12/23 01:55:41;;;;;;;5.13;3.00;;;;;;;5.47;100.00;100054.16;10569172;28;20167;-79
2022/12/23 02:11:44;;;;;;;4.82;2.80;;;;;;;5.45;100.00;100067.94;10553191;27;20063;-79
2022/12/23 02:16:57;;;;;;;3.65;2.97;;;;;;;5.42;100.00;100078.25;10536235;28;20044;-79
2022/12/23 02:22:01;;;;;;;4.20;2.40;;;;;;;5.43;100.00;100098.19;10555426;27;20778;-79
2022/12/23 02:27:14;;;;;;;3.25;2.30;;;;;;;5.43;100.00;100088.66;10576305;28;20074;-79
2022/12/23 02:32:35;;;;;;;8.60;3.22;;;;;;;5.44;100.00;100084.38;10578611;28;20048;-78
2022/12/23 02:37:39;;;;;;;;;;;;;;;5.46;100.00;100091.38;10569833;28;20043;-80
2022/12/23 02:43:11;;;;;;;2.88;2.35;;;;;;;5.45;100.00;100081.81;10576638;27;19980;-78
2022/12/23 02:48:21;;;;;;;3.95;2.80;;;;;;;5.48;100.00;100097.47;10578282;27;20039;-79
2022/12/23 02:53:34;;;;;;;4.15;2.25;;;;;;;5.48;100.00;100099.19;10569076;27;20054;-78
2022/12/23 02:58:43;;;;;;;5.35;2.83;;;;;;;5.49;100.00;100111.31;10582967;27;20124;-78
2022/12/23 03:03:46;;;;;;;5.70;2.70;;;;;;;5.47;100.00;100121.66;10548406;28;20109;-79
2022/12/23 03:08:51;;;;;;;5.65;2.90;;;;;;;5.48;100.00;100126.03;10531191;28;20071;-78
2022/12/23 03:14:07;;;;;;;8.55;4.25;;;;;;;5.47;100.00;100126.00;10554547;27;20051;-79
2022/12/23 03:19:09;;;;;;;3.00;2.38;;;;;;;5.46;100.00;100124.22;10546868;28;20074;-79
2022/12/23 03:24:29;;;;;;;3.47;2.55;;;;;;;5.44;100.00;100131.97;10571704;27;20051;-80
2022/12/23 03:29:47;;;;;;;4.13;2.38;;;;;;;5.46;100.00;100145.91;10552088;28;20036;-79
2022/12/23 03:34:53;;;;;;;5.55;3.15;;;;;;;5.45;100.00;100158.81;10556435;28;20051;-79
2022/12/23 03:40:04;;;;;;;5.28;3.08;;;;;;;5.46;100.00;100153.69;10555513;28;20411;-77
2022/12/23 03:45:15;;;;;;;;;;;;;;;5.42;100.00;100149.25;10545679;28;20043;-78
2022/12/23 03:50:38;;;;;;;4.07;2.75;;;;;;;5.43;100.00;100139.72;10557360;28;19923;-78
2022/12/23 03:55:46;;;;;;;4.47;2.97;;;;;;;5.41;100.00;100150.06;10552973;28;20047;-78
2022/12/23 04:00:58;;;;;;;4.00;2.45;;;;;;;5.40;100.00;100150.91;10563547;28;20058;-79
2022/12/23 04:06:03;;;;;;;7.03;3.45;;;;;;;5.41;100.00;100162.19;10562346;28;20085;-80
2022/12/23 04:11:05;;;;;;;4.18;2.47;;;;;;;5.47;100.00;100175.34;10572003;28;20522;-78
2022/12/23 04:16:07;;;;;;;4.75;2.88;;;;;;;5.41;100.00;100183.81;10572876;28;20044;-79
2022/12/23 04:21:08;;;;;;;3.05;2.08;;;;;;;5.43;100.00;100197.72;10546703;28;20036;-79
2022/12/23 04:26:10;;;;;;;3.15;1.85;;;;;;;5.38;100.00;100199.31;10572967;28;20043;-79
2022/12/23 04:31:11;;;;;;;5.55;3.22;;;;;;;5.41;100.00;100203.72;10556189;28;20507;-79
2022/12/23 04:36:13;;;;;;;3.88;2.55;;;;;;;5.38;100.00;100188.94;10556682;28;20038;-79
2022/12/23 04:41:14;;;;;;;6.97;3.67;;;;;;;5.40;100.00;100197.63;10547966;28;20039;-79
2022/12/23 04:46:16;;;;;;;2.90;2.25;;;;;;;5.40;100.00;100202.81;10554791;28;20039;-80
2022/12/23 04:51:18;;;;;;;7.63;3.55;;;;;;;5.38;100.00;100199.31;10583659;27;20043;-79
2022/12/23 04:56:20;;;;;;;4.82;2.70;;;;;;;5.38;100.00;100214.03;10554555;28;20064;-79
2022/12/23 05:01:21;;;;;;;3.95;2.47;;;;;;;5.39;100.00;100219.25;10583823;27;20039;-79
2022/12/23 05:06:23;;;;;;;5.60;3.15;;;;;;;5.37;100.00;100223.50;10574963;27;20455;-79
2022/12/23 05:11:25;;;;;;;5.40;2.58;;;;;;;5.35;100.00;100221.72;10570223;28;20042;-79
2022/12/23 05:16:26;;;;;;;4.55;2.72;;;;;;;5.39;100.00;100220.97;10550661;28;20557;-78
2022/12/23 05:21:28;;;;;;;5.18;3.03;;;;;;;5.31;100.00;100219.06;10551377;28;20140;-78
2022/12/23 05:26:29;;;;;;;4.13;2.78;;;;;;;5.32;100.00;100230.31;10568319;28;20043;-78
2022/12/23 05:31:31;;;;;;;6.57;3.88;;;;;;;5.28;100.00;100229.34;10568833;28;20046;-78
2022/12/23 05:36:33;;;;;;;3.70;2.35;;;;;;;5.22;100.00;100220.47;10548995;28;20061;-78
2022/12/23 05:41:34;;;;;;;6.18;3.72;;;;;;;5.18;100.00;100221.22;10583613;27;20054;-79
2022/12/23 05:46:36;;;;;;;3.55;2.88;;;;;;;5.10;100.00;100219.28;10572144;27;20036;-79
2022/12/23 05:51:37;;;;;;;2.92;1.70;;;;;;;5.11;100.00;100221.03;10560552;27;20043;-78
2022/12/23 05:56:39;;;;;;;3.05;2.13;;;;;;;5.07;100.00;100216.56;10557792;28;20035;-78
2022/12/23 06:01:41;;;;;;;2.90;1.90;;;;;;;5.01;100.00;100229.38;10549130;28;20187;-78
2022/12/23 06:06:43;;;;;;;2.05;1.85;;;;;;;4.98;100.00;100231.00;10546742;28;20537;-78
2022/12/23 06:11:45;;;;;;;1.92;1.65;;;;;;;4.98;100.00;100233.59;10521022;28;20454;-78
2022/12/23 06:16:46;;;;;;;4.18;3.20;;;;;;;5.00;100.00;100257.88;10565645;28;20036;-80
2022/12/23 06:21:48;;;;;;;2.00;1.23;;;;;;;4.99;100.00;100261.31;10532644;28;20110;-79
2022/12/23 06:26:49;;;;;;;4.13;2.17;;;;;;;4.99;100.00;100257.00;10532024;28;20055;-78
2022/12/23 06:31:57;;;;;;;3.90;2.25;;;;;;;5.01;100.00;100270.88;10507704;27;20130;-79
2022/12/23 06:36:59;;;;;;;3.75;2.38;;;;;;;5.01;100.00;100286.47;10561927;28;20040;-78
2022/12/23 06:42:01;;;;;;;3.55;2.05;;;;;;;5.02;100.00;100292.53;10541555;28;20651;-77
2022/12/23 06:47:02;;;;;;;3.33;1.95;;;;;;;5.05;100.00;100282.25;10569455;27;20035;-78
2022/12/23 06:52:04;;;;;;;3.80;2.42;;;;;;;5.01;100.00;100293.38;10569034;27;20042;-78
2022/12/23 06:57:06;;;;;;;2.38;0.90;;;;;;;5.00;100.00;100282.13;10564303;27;22442;-79
2022/12/23 07:02:10;;;;;;;4.10;3.00;;;;;;;5.00;100.00;100284.72;10593342;27;20044;-81
2022/12/23 07:07:12;;;;;;;4.20;2.55;;;;;;;5.00;100.00;100300.28;10610771;27;20064;-80
2022/12/23 07:12:14;;;;;;;2.80;2.05;;;;;;;4.95;100.00;100307.03;10571858;27;20039;-80
2022/12/23 07:17:15;;;;;;;2.65;1.40;;;;;;;4.92;100.00;100312.13;10579923;27;20035;-79
2022/12/23 07:22:17;;;;;;;3.00;2.03;;;;;;;4.88;100.00;100312.84;10574364;27;20129;-79
2022/12/23 07:27:18;;;;;;;3.42;2.40;;;;;;;4.89;100.00;100319.81;10578921;27;20047;-79
2022/12/23 07:32:20;;;;;;;4.38;2.30;;;;;;;4.90;100.00;100329.34;10595484;27;20110;-80
2022/12/23 07:37:22;;;;;;;2.63;1.60;;;;;;;4.94;100.00;100339.00;10598557;27;20423;-79
2022/12/23 07:42:23;;;;;;;3.10;2.05;;;;;;;4.93;100.00;100345.03;10575605;27;20036;-79
2022/12/23 07:47:45;;;;;;;4.28;2.10;;;;;;;4.93;100.00;100352.81;10586252;27;20040;-79
2022/12/23 07:52:46;;;;;;;2.63;1.88;;;;;;;4.95;100.00;100358.91;10591791;27;20043;-79
2022/12/23 07:57:49;;;;;;;7.78;2.25;;;;;;;4.98;100.00;100364.22;10549906;28;20061;-79
2022/12/23 08:02:50;;;;;;;2.83;1.65;;;;;;;4.99;100.00;100363.38;10566128;27;20036;-79
2022/12/23 08:07:52;;;;;;;4.72;2.50;;;;;;;5.05;100.00;100376.56;10602361;27;20074;-79
2022/12/23 08:12:54;;;;;;;5.07;2.63;;;;;;;5.06;100.00;100388.72;10558954;27;20039;-79
2022/12/23 08:17:56;;;;;;;4.43;2.35;;;;;;;5.07;100.00;100398.25;10591939;27;20481;-78
2022/12/23 08:22:57;;;;;;;4.15;2.55;;;;;;;5.09;100.00;100409.56;10517463;28;20292;-79
2022/12/23 08:27:59;;;;;;;3.20;2.00;;;;;;;5.12;100.00;100414.88;10573758;27;20119;-79
2022/12/23 08:33:00;;;;;;;4.53;2.45;;;;;;;5.12;100.00;100411.41;10538037;28;20526;-77
2022/12/23 08:38:02;;;;;;;3.50;1.65;;;;;;;5.14;100.00;100408.00;10582819;27;20046;-79
2022/12/23 08:43:03;;;;;;;4.10;2.15;;;;;;;5.23;100.00;100388.38;10596992;27;20411;-78
2022/12/23 08:48:05;;;;;;;4.30;2.47;;;;;;;5.22;100.00;100394.41;10575990;27;20049;-80
2022/12/23 08:53:08;;;;;;;3.40;2.40;;;;;;;5.22;100.00;100397.84;10576721;27;20062;-78
2022/12/23 08:58:11;;;;;;;2.30;1.60;;;;;;;5.32;100.00;100375.69;10569091;27;20050;-80
2022/12/23 09:03:12;;;;;;;3.80;2.30;;;;;;;5.38;100.00;100369.81;10578308;28;20066;-80
2022/12/23 09:08:14;;;;;;;4.97;3.17;;;;;;;5.45;100.00;100366.56;10587987;27;20039;-79
2022/12/23 09:13:15;;;;;;;3.55;1.85;;;;;;;5.46;100.00;100364.03;10577933;28;20050;-78
2022/12/23 09:18:28;;;;;;;3.00;1.95;;;;;;;5.56;100.00;100362.59;10590817;27;20105;-80
2022/12/23 09:23:30;;;;;;;2.13;1.55;;;;;;;5.64;100.00;100375.81;10596500;27;20134;-78
2022/12/23 09:28:32;;;;;;;1.63;1.40;;;;;;;5.69;100.00;100391.53;10585447;28;20090;-79
2022/12/23 09:33:33;;;;;;;1.75;1.13;;;;;;;5.79;100.00;100389.25;10553627;28;20823;-78
2022/12/23 09:38:35;;;;;;;2.83;2.03;;;;;;;5.83;100.00;100390.25;10557843;28;20048;-79
2022/12/23 09:43:45;;;;;;;4.00;1.95;;;;;;;5.86;100.00;100386.84;10553227;28;20043;-78
2022/12/23 09:49:07;;;;;;;;;;;;;;;5.86;100.00;100384.25;10551623;28;20415;-79
2022/12/23 09:54:11;;;;;;;;;;;;;;;5.87;100.00;100391.19;10498853;28;19931;-80
2022/12/23 09:59:36;;;;;;;5.30;2.30;;;;;;;5.84;100.00;100381.63;10546551;28;20023;-80
2022/12/23 10:05:08;;;;;;;3.35;1.95;;;;;;;5.98;100.00;100366.44;10553348;28;20044;-77
2022/12/23 10:10:19;;;;;;;7.95;2.72;;;;;;;6.21;100.00;100372.28;10548773;28;20048;-79
2022/12/23 10:15:36;;;;;;;4.13;1.98;;;;;;;6.15;100.00;100373.00;10544157;28;20085;-79
2022/12/23 10:20:47;;;;;;;3.03;1.95;;;;;;;6.19;100.00;100369.66;10561440;28;20263;-78
2022/12/23 10:25:51;;;;;;;2.38;1.83;;;;;;;6.26;100.00;100357.72;10538670;28;20051;-78
2022/12/23 10:31:01;;;;;;;7.28;2.63;;;;;;;6.36;100.00;100341.53;10529856;28;20039;-79
2022/12/23 10:36:36;;;;;;;3.92;1.60;;;;;;;6.58;100.00;100343.81;10525286;28;20143;-78
2022/12/23 10:42:07;;;;;;;4.13;2.92;;;;;;;6.64;100.00;100336.19;10566118;27;20047;-79
2022/12/23 10:47:08;;;;;;;;;;;;;;;6.85;100.00;100341.03;10539159;28;20047;-79
2022/12/23 10:52:22;;;;;;;3.90;2.25;;;;;;;6.93;100.00;100328.22;10528703;28;20352;-78
2022/12/23 10:57:24;;;;;;;7.05;2.75;;;;;;;6.91;100.00;100315.16;10541578;27;20706;-78
2022/12/23 11:02:26;;;;;;;3.47;2.03;;;;;;;7.04;100.00;100316.31;10542773;27;20051;-78
2022/12/23 11:07:29;;;;;;;2.90;1.70;;;;;;;7.11;100.00;100312.16;10546923;27;20047;-77
2022/12/23 11:12:50;;;;;;;4.00;2.28;;;;;;;7.28;100.00;100300.41;10556324;27;20119;-79
2022/12/23 11:18:00;;;;;;;7.18;2.78;;;;;;;7.26;100.00;100295.16;10570809;27;20055;-79
2022/12/23 11:23:04;;;;;;;3.33;1.73;;;;;;;7.26;100.00;100289.94;10535164;27;20048;-78
2022/12/23 11:28:14;;;;;;;7.53;3.20;;;;;;;7.24;100.00;100289.03;10545387;28;20047;-78
2022/12/23 11:33:30;;;;;;;2.72;1.73;;;;;;;7.18;100.00;100286.28;10544375;28;20504;-78
2022/12/23 11:38:34;;;;;;;5.00;2.70;;;;;;;7.12;100.00;100287.91;10563077;27;20036;-79
2022/12/23 11:43:38;;;;;;;2.72;1.52;;;;;;;7.14;100.00;100300.06;10568966;27;20049;-80
2022/12/23 11:48:39;;;;;;;4.15;2.35;;;;;;;7.08;100.00;100298.22;10559808;28;20050;-78
2022/12/23 11:53:41;;;;;;;3.50;2.42;;;;;;;7.01;100.00;100296.34;10543216;27;20043;-77
2022/12/23 11:58:52;;;;;;;5.38;2.88;;;;;;;6.95;100.00;100295.28;10563340;28;20040;-77
2022/12/23 12:03:55;;;;;;;;;;;;;;;6.88;100.00;100289.06;10558285;27;20040;-77
2022/12/23 12:09:00;;;;;;;4.03;2.00;;;;;;;6.81;100.00;100288.03;10549625;28;19976;-76
2022/12/23 12:14:05;;;;;;;4.90;2.80;;;;;;;6.75;100.00;100271.41;10553406;28;20039;-79
2022/12/23 12:19:19;;;;;;;2.80;1.83;;;;;;;6.88;100.00;100266.50;10575797;27;20047;-76
2022/12/23 12:24:31;;;;;;;3.10;1.95;;;;;;;6.92;100.00;100258.78;10560864;27;20055;-77
2022/12/23 12:29:53;;;;;;;3.58;1.98;;;;;;;7.00;100.00;100236.41;10564359;27;20035;-78
2022/12/23 12:34:59;;;;;;;3.45;2.03;;;;;;;7.17;100.00;100214.22;10544792;27;20047;-77
2022/12/23 12:40:27;;;;;;;6.80;2.95;;;;;;;7.21;100.00;100217.78;10564902;28;20051;-78
2022/12/23 12:45:38;;;;;;;2.60;1.73;;;;;;;7.17;100.00;100216.81;10541573;28;20054;-77
2022/12/23 12:50:43;;;;;;;;;;;;;;;7.21;99.97;100215.19;10568561;27;20074;-77
2022/12/23 12:55:51;;;;;;;2.65;1.88;;;;;;;7.25;99.90;100204.88;10569526;27;20415;-77
2022/12/23 13:01:19;;;;;;;3.45;2.20;;;;;;;7.23;99.80;100205.66;10563951;28;20093;-78
2022/12/23 13:06:37;;;;;;;1.90;1.55;;;;;;;7.21;99.72;100204.78;10532041;27;20074;-77
2022/12/23 13:11:53;;;;;;;4.18;1.95;;;;;;;7.23;99.45;100198.72;10528572;28;20042;-77
2022/12/23 13:17:31;;;;;;;3.47;1.77;;;;;;;7.23;99.27;100198.72;10564261;28;20079;-77
2022/12/23 13:22:33;;;;;;;5.75;2.25;;;;;;;7.18;99.20;100197.75;10531147;28;20040;-78
2022/12/23 13:27:42;;;;;;;6.68;2.55;;;;;;;7.20;99.19;100190.84;10547860;28;20047;-76
2022/12/23 13:33:06;;;;;;;3.80;1.83;;;;;;;7.07;99.06;100181.91;10545289;28;20050;-76
2022/12/23 13:38:22;;;;;;;6.40;2.53;;;;;;;7.06;98.91;100179.28;10555935;28;20465;-77
2022/12/23 13:43:28;;;;;;;3.55;2.15;;;;;;;7.06;99.02;100171.47;10545025;28;20047;-76
2022/12/23 13:48:58;;;;;;;2.50;1.77;;;;;;;7.04;98.88;100178.34;10540387;28;20462;-77
2022/12/23 13:54:13;;;;;;;3.92;2.42;;;;;;;7.11;98.93;100179.38;10535486;28;20046;-77
2022/12/23 13:59:15;;;;;;;2.83;2.08;;;;;;;7.08;98.82;100172.38;10542183;28;20066;-77
2022/12/23 14:04:55;;;;;;;2.05;1.40;;;;;;;7.05;98.86;100169.69;10569394;28;20039;-77
2022/12/23 14:10:07;;;;;;;2.63;1.77;;;;;;;7.02;98.80;100164.44;10574158;27;20047;-77
2022/12/23 14:15:27;;;;;;;1.98;1.42;;;;;;;6.96;98.83;100167.78;10565520;28;20059;-78
2022/12/23 14:20:37;;;;;;;4.37;2.03;;;;;;;6.89;98.84;100165.88;10576139;28;20521;-77
2022/12/23 14:25:54;;;;;;;3.35;2.20;;;;;;;6.90;99.04;100149.44;10570215;28;20052;-76
2022/12/23 14:30:57;;;;;;;2.88;1.50;;;;;;;6.89;99.12;100140.75;10571391;28;20052;-77
2022/12/23 14:36:25;;;;;;;4.60;1.92;;;;;;;6.89;98.86;100135.53;10543250;28;20116;-77
2022/12/23 14:41:50;;;;;;;7.63;2.50;;;;;;;6.85;99.02;100127.63;10564354;28;20048;-77
2022/12/23 14:46:54;;;;;;;4.25;2.22;;;;;;;6.83;99.04;100125.00;10535555;28;20126;-77
2022/12/23 14:51:55;;;;;;;7.35;2.40;;;;;;;6.78;98.75;100121.41;10570943;28;20199;-77
2022/12/23 14:57:12;;;;;;;6.15;3.05;;;;;;;6.74;99.14;100114.41;10551814;28;20047;-77
2022/12/23 15:02:25;;;;;;;3.47;2.42;;;;;;;6.71;99.48;100119.50;10544207;28;20043;-78
2022/12/23 15:07:32;;;;;;;3.05;1.38;;;;;;;6.66;99.04;100105.53;10573409;28;20089;-78
2022/12/23 15:12:38;;;;;;;3.10;2.50;;;;;;;6.64;99.15;100107.22;10562397;28;20071;-78
2022/12/23 15:17:40;;;;;;;5.90;2.78;;;;;;;6.61;99.30;100107.16;10551752;28;20407;-77
2022/12/23 15:22:44;;;;;;;2.92;1.77;;;;;;;6.61;99.25;100107.16;10561751;28;20055;-77
2022/12/23 15:27:46;;;;;;;5.32;2.08;;;;;;;6.62;99.52;100098.50;10568347;28;20031;-76
2022/12/23 15:32:55;;;;;;;2.33;1.40;;;;;;;6.59;99.22;100098.44;10568987;28;20052;-77
2022/12/23 15:37:58;;;;;;;2.88;2.33;;;;;;;6.59;99.62;100088.94;10549666;28;20097;-76
2022/12/23 15:43:01;;;;;;;3.05;1.60;;;;;;;6.57;99.68;100095.78;10569242;27;20060;-77
2022/12/23 15:48:04;;;;;;;3.78;1.63;;;;;;;6.50;99.69;100089.59;10568191;28;20043;-77
2022/12/23 15:53:08;;;;;;;3.17;1.77;;;;;;;6.50;99.66;100092.19;10560494;28;20058;-77
2022/12/23 15:58:22;;;;;;;3.22;1.58;;;;;;;6.44;99.59;100094.66;10567799;28;20047;-79
2022/12/23 16:03:30;;;;;;;4.10;2.55;;;;;;;6.42;99.47;100079.84;10567525;28;20525;-77
2022/12/23 16:08:33;;;;;;;2.85;1.58;;;;;;;6.36;99.62;100081.50;10570914;28;20060;-79
2022/12/23 16:13:35;;;;;;;3.70;2.22;;;;;;;6.38;99.69;100086.72;10573655;28;20054;-79
2022/12/23 16:18:42;;;;;;;3.40;1.75;;;;;;;6.36;99.67;100080.59;10571365;28;20046;-78
2022/12/23 16:23:51;;;;;;;3.35;2.20;;;;;;;6.32;99.80;100069.25;10565364;28;20123;-78
2022/12/23 16:28:58;;;;;;;3.35;2.00;;;;;;;6.29;99.76;100066.59;10550879;27;20097;-77
2022/12/23 16:34:05;;;;;;;4.07;2.88;;;;;;;6.30;99.73;100060.53;10559385;28;20040;-77
2022/12/23 16:39:21;;;;;;;4.78;2.55;;;;;;;6.27;100.00;100060.44;10535330;28;20082;-78
2022/12/23 16:44:23;;;;;;;3.85;2.45;;;;;;;6.24;99.75;100049.13;10585045;27;20074;-78
2022/12/23 16:49:26;;;;;;;3.28;1.95;;;;;;;6.23;99.91;100036.94;10557341;27;20044;-78
2022/12/23 16:54:34;;;;;;;4.22;1.58;;;;;;;6.17;99.77;100035.97;10559251;27;20092;-77
2022/12/23 16:59:37;;;;;;;3.13;2.40;;;;;;;6.16;100.00;100034.22;10575348;27;20039;-78
2022/12/23 17:04:39;;;;;;;2.17;1.83;;;;;;;6.13;100.00;100036.75;10578474;27;20043;-77
2022/12/23 17:09:40;;;;;;;2.50;1.55;;;;;;;6.11;99.69;100027.16;10579744;27;20042;-78
2022/12/23 17:14:42;;;;;;;2.85;1.92;;;;;;;6.04;100.00;100026.13;10580036;27;20048;-77
2022/12/23 17:19:43;;;;;;;4.10;2.38;;;;;;;6.09;100.00;100023.66;10560636;27;20506;-77
2022/12/23 17:24:45;;;;;;;4.38;1.80;;;;;;;6.07;100.00;100025.34;10555941;27;20116;-77
2022/12/23 17:29:47;;;;;;;3.70;2.42;;;;;;;6.02;100.00;100022.63;10552343;28;20042;-78
2022/12/23 17:34:48;;;;;;;0.93;0.70;;;;;;;6.04;100.00;100017.47;10553484;27;20046;-77
2022/12/23 17:39:50;;;;;;;0.80;0.80;;;;;;;6.00;100.00;100011.31;10580280;27;20043;-77
2022/12/23 17:44:52;;;;;;;6.93;2.75;;;;;;;6.02;100.00;100014.84;10593103;27;20047;-77
2022/12/23 17:49:54;;;;;;;6.50;2.70;;;;;;;5.98;100.00;100016.47;10575768;27;20035;-77
2022/12/23 17:54:55;;;;;;;3.45;1.83;;;;;;;5.94;100.00;100018.94;10584400;27;20044;-77
2022/12/23 17:59:57;;;;;;;3.33;1.77;;;;;;;5.95;100.00;100021.56;10562862;27;20048;-77
2022/12/23 18:04:59;;;;;;;2.55;1.35;;;;;;;5.95;100.00;100018.97;10559967;28;20057;-77
2022/12/23 18:10:00;;;;;;;2.70;1.98;;;;;;;5.94;100.00;100019.81;10587541;27;20039;-77
2022/12/23 18:15:05;;;;;;;3.92;1.80;;;;;;;5.94;100.00;100018.94;10607761;27;20134;-77
2022/12/23 18:20:14;;;;;;;4.25;2.03;;;;;;;5.96;100.00;100025.03;10577909;27;20040;-77
2022/12/23 18:25:23;;;;;;;2.83;2.30;;;;;;;5.94;100.00;100024.13;10547491;27;20097;-78
2022/12/23 18:30:24;;;;;;;2.03;0.98;;;;;;;5.96;100.00;100028.53;10570312;27;20051;-77
2022/12/23 18:35:28;;;;;;;1.70;1.25;;;;;;;5.89;100.00;100033.56;10595313;27;20513;-76
2022/12/23 18:40:29;;;;;;;2.92;1.95;;;;;;;5.88;100.00;100044.78;10518172;27;20042;-77
2022/12/23 18:45:43;;;;;;;1.70;1.27;;;;;;;5.89;100.00;100033.56;10558306;27;20048;-76
2022/12/23 18:50:52;;;;;;;2.85;1.80;;;;;;;5.83;100.00;100026.47;10541532;27;20510;-77
2022/12/23 18:55:54;;;;;;;0.65;0.60;;;;;;;5.79;100.00;100025.50;10539891;27;20051;-77
2022/12/23 19:00:55;;;;;;;3.22;2.15;;;;;;;5.75;100.00;100017.59;10543051;27;20772;-78
2022/12/23 19:06:05;;;;;;;4.07;2.45;;;;;;;5.71;100.00;100027.06;10576171;27;20092;-77
2022/12/23 19:11:15;;;;;;;2.78;2.15;;;;;;;5.69;100.00;100023.56;10540857;27;20041;-78
2022/12/23 19:16:20;;;;;;;3.97;2.97;;;;;;;5.62;100.00;100021.63;10515280;27;20040;-77
2022/12/23 19:21:22;;;;;;;4.28;2.00;;;;;;;5.63;100.00;100023.38;10560060;27;20039;-77
2022/12/23 19:26:24;;;;;;;4.50;2.75;;;;;;;5.60;100.00;100028.50;10564174;28;20142;-79
2022/12/23 19:31:26;;;;;;;2.85;2.22;;;;;;;5.59;100.00;100027.63;10541232;28;20051;-77
2022/12/23 19:36:27;;;;;;;2.25;1.45;;;;;;;5.58;100.00;100030.19;10551116;28;20039;-77
2022/12/23 19:41:29;;;;;;;1.95;1.25;;;;;;;5.60;100.00;100028.50;10566730;28;20047;-77
2022/12/23 19:46:31;;;;;;;3.50;2.72;;;;;;;5.52;100.00;100030.03;10566183;28;20052;-77
2022/12/23 19:51:32;;;;;;;0.93;0.57;;;;;;;5.52;100.00;100035.22;10545284;28;20069;-77
2022/12/23 19:56:34;;;;;;;3.78;2.78;;;;;;;5.49;100.00;100041.22;10558749;28;20398;-77
2022/12/23 20:01:35;;;;;;;4.80;3.00;;;;;;;5.51;100.00;100041.25;10569909;27;20047;-76
2022/12/23 20:06:39;;;;;;;1.55;1.40;;;;;;;5.44;100.00;100054.09;10538344;27;20079;-76
2022/12/23 20:11:43;;;;;;;5.90;3.00;;;;;;;5.48;100.00;100060.25;10558025;27;20116;-76
2022/12/23 20:16:47;;;;;;;3.97;2.65;;;;;;;5.48;100.00;100058.53;10555539;27;20047;-79
2022/12/23 20:21:48;;;;;;;3.92;2.63;;;;;;;5.48;100.00;100058.53;10544732;27;20028;-77
2022/12/23 20:26:50;;;;;;;1.60;0.60;;;;;;;5.49;100.00;100064.59;10592734;27;20825;-77
2022/12/23 20:31:52;;;;;;;2.38;0.77;;;;;;;5.45;100.00;100065.34;10570410;27;20034;-76
2022/12/23 20:36:53;;;;;;;1.48;1.13;;;;;;;5.46;100.00;100055.03;10602971;27;20047;-77
2022/12/23 20:41:56;;;;;;;0.98;0.88;;;;;;;5.46;100.00;100061.91;10570112;27;20035;-77
2022/12/23 20:46:57;;;;;;;1.05;0.98;;;;;;;5.45;100.00;100066.22;10591790;27;20043;-77
2022/12/23 20:51:59;;;;;;;1.45;0.93;;;;;;;5.43;100.00;100073.09;10584229;27;20082;-77
2022/12/23 20:57:01;;;;;;;1.50;1.30;;;;;;;5.46;100.00;100072.28;10541515;27;20048;-77
2022/12/23 21:02:03;;;;;;;1.65;0.93;;;;;;;5.44;100.00;100069.66;10555354;27;20035;-77
2022/12/23 21:07:05;;;;;;;1.45;1.02;;;;;;;5.41;100.00;100072.19;10573239;27;20414;-77
2022/12/23 21:12:06;;;;;;;2.13;0.98;;;;;;;5.43;100.00;100073.09;10548051;27;20502;-77
2022/12/23 21:17:08;;;;;;;2.40;1.25;;;;;;;5.42;100.00;100080.84;10570416;27;20047;-77
2022/12/23 21:22:09;;;;;;;1.10;0.95;;;;;;;5.38;100.00;100068.63;10578877;27;20042;-77
2022/12/23 21:27:11;;;;;;;1.85;1.17;;;;;;;5.40;100.00;100091.19;10564180;27;20070;-77
2022/12/23 21:32:13;;;;;;;3.00;1.42;;;;;;;5.39;100.00;100086.84;10589844;28;20604;-77
2022/12/23 21:37:14;;;;;;;2.85;1.27;;;;;;;5.37;100.00;100082.44;10579171;28;20047;-77
2022/12/23 21:42:16;;;;;;;6.43;0.77;;;;;;;5.39;100.00;100081.66;10561223;28;20039;-78
2022/12/23 21:47:17;;;;;;;1.70;1.20;;;;;;;5.36;100.00;100080.69;10589044;28;20054;-78
2022/12/23 21:52:19;;;;;;;1.17;0.82;;;;;;;5.34;100.00;100088.41;10594866;28;20041;-77
2022/12/23 21:57:20;;;;;;;0.30;0.30;;;;;;;5.37;100.00;100079.84;10547944;28;20079;-77
2022/12/23 22:02:22;;;;;;;2.30;1.17;;;;;;;5.34;100.00;100098.81;10572210;28;20046;-77
2022/12/23 22:07:23;;;;;;;1.00;0.90;;;;;;;5.30;100.00;100099.59;10594210;28;20054;-78
2022/12/23 22:12:25;;;;;;;1.00;0.82;;;;;;;5.28;100.00;100099.53;10588977;28;20046;-77
2022/12/23 22:17:26;;;;;;;1.70;1.27;;;;;;;5.27;100.00;100091.72;10596690;28;20317;-78
2022/12/23 22:22:28;;;;;;;1.63;1.15;;;;;;;5.23;100.00;100097.66;10566143;27;20112;-79
2022/12/23 22:27:30;;;;;;;0.63;0.63;;;;;;;5.25;100.00;100093.38;10560343;28;20047;-78
2022/12/23 22:32:32;;;;;;;0.85;0.82;;;;;;;5.26;100.00;100102.94;10586460;27;20047;-77
2022/12/23 22:37:39;;;;;;;1.08;0.90;;;;;;;5.19;100.00;100103.59;10562661;27;20136;-78
2022/12/23 22:42:40;;;;;;;1.50;1.40;;;;;;;5.20;100.00;100107.94;10594954;27;20418;-77
2022/12/23 22:47:42;;;;;;;0.77;0.63;;;;;;;5.18;100.00;100096.63;10595677;27;20061;-77
2022/12/23 22:52:44;;;;;;;0.85;0.68;;;;;;;5.19;100.00;100093.19;10603044;27;20074;-77
2022/12/23 22:57:45;;;;;;;1.20;0.80;;;;;;;5.18;100.00;100091.44;10602722;27;20526;-76
2022/12/23 23:02:47;;;;;;;1.67;0.80;;;;;;;5.20;100.00;100097.56;10602635;27;20047;-78
2022/12/23 23:07:48;;;;;;;1.38;1.05;;;;;;;5.18;100.00;100096.63;10580181;27;20050;-78
2022/12/23 23:12:50;;;;;;;0.85;0.82;;;;;;;5.20;100.00;100107.94;10610671;27;20039;-78
2022/12/23 23:17:51;;;;;;;0.80;0.65;;;;;;;5.17;100.00;100111.34;10575164;27;20848;-78
2022/12/23 23:22:53;;;;;;;0.75;0.68;;;;;;;5.16;100.00;100113.88;10594233;27;20047;-79
2022/12/23 23:27:55;;;;;;;0.98;0.63;;;;;;;5.11;100.00;100112.03;10593197;27;20576;-78
2022/12/23 23:32:56;;;;;;;0.70;0.68;;;;;;;5.16;100.00;100106.09;10586440;27;20047;-78
2022/12/23 23:37:58;;;;;;;0.50;0.50;;;;;;;5.21;100.00;100097.63;10583927;27;20059;-78
2022/12/23 23:42:59;;;;;;;0.40;0.40;;;;;;;5.17;100.00;100095.75;10565037;27;20048;-78
2022/12/23 23:48:01;;;;;;;1.38;0.70;;;;;;;5.20;100.00;100094.97;10590596;27;20039;-77
2022/12/23 23:53:03;;;;;;;1.50;0.90;;;;;;;5.16;100.00;100100.91;10581137;27;20117;-77
2022/12/23 23:58:06;;;;;;;1.40;1.08;;;;;;;5.17;100.00;100113.94;10573755;27;20422;-78
